Time;durP1;ratioP1;P1;durP2;ratioP2;P2;SDS_P1;SDS_P2;PMS_P1;PMS_P2;Temp;Humidity;BMP_temperature;BMP_pressure;BME280_temperature;BME280_humidity;BME280_pressure;Samples;Min_cycle;Max_cycle;Signal;HPM_P1;HPM_P2
2021/09/20 00:01:35;;;;;;;13.60;10.33;;;11.80;61.80;;;;;;5018002;28;20392;-75
2021/09/20 00:04:01;;;;;;;14.05;9.82;;;11.60;64.80;;;;;;5013848;28;20381;-75
2021/09/20 00:06:27;;;;;;;12.52;9.82;;;11.50;67.50;;;;;;5014120;28;20400;-74
2021/09/20 00:08:53;;;;;;;17.90;10.60;;;11.40;69.20;;;;;;5013067;28;20897;-75
2021/09/20 00:11:18;;;;;;;17.73;10.47;;;11.40;70.10;;;;;;5013676;28;20400;-75
2021/09/20 00:13:44;;;;;;;13.20;10.13;;;11.70;67.90;;;;;;5013341;28;20388;-76
2021/09/20 00:16:10;;;;;;;12.65;9.60;;;11.80;64.60;;;;;;5012987;28;20405;-76
2021/09/20 00:18:36;;;;;;;14.35;9.80;;;11.90;63.70;;;;;;5013296;28;20385;-76
2021/09/20 00:21:02;;;;;;;12.30;9.68;;;11.90;63.00;;;;;;5019425;28;20745;-74
2021/09/20 00:23:27;;;;;;;12.93;9.65;;;11.80;63.80;;;;;;5032985;28;20813;-74
2021/09/20 00:25:53;;;;;;;12.65;9.40;;;11.90;63.80;;;;;;5000113;28;20413;-74
2021/09/20 00:28:20;;;;;;;15.25;10.20;;;11.80;64.90;;;;;;4993102;28;20841;-75
2021/09/20 00:30:46;;;;;;;16.35;10.25;;;11.80;65.70;;;;;;4993264;28;20584;-75
2021/09/20 00:33:12;;;;;;;17.55;10.90;;;11.60;67.30;;;;;;4993028;28;20390;-75
2021/09/20 00:35:37;;;;;;;15.87;10.03;;;11.70;68.10;;;;;;4993018;28;20449;-75
2021/09/20 00:38:03;;;;;;;15.10;9.47;;;11.90;65.90;;;;;;4994892;28;20496;-77
2021/09/20 00:40:29;;;;;;;13.40;9.50;;;12.00;63.00;;;;;;4993457;28;20422;-76
2021/09/20 00:42:55;;;;;;;11.97;9.50;;;11.80;64.20;;;;;;5007661;28;20819;-75
2021/09/20 00:45:21;;;;;;;14.87;10.67;;;11.60;67.70;;;;;;5012315;28;20754;-75
2021/09/20 00:47:46;;;;;;;13.43;10.00;;;11.60;70.50;;;;;;5012037;28;20729;-75
2021/09/20 00:50:12;;;;;;;13.53;9.97;;;11.60;69.70;;;;;;5011614;28;20527;-75
2021/09/20 00:52:38;;;;;;;12.13;9.13;;;11.60;69.80;;;;;;5013486;28;20427;-76
2021/09/20 00:55:05;;;;;;;17.93;10.30;;;11.50;71.50;;;;;;5012346;28;20409;-76
2021/09/20 00:57:32;;;;;;;14.02;10.52;;;11.30;73.70;;;;;;5012145;28;20391;-75
2021/09/20 00:59:58;;;;;;;15.02;10.50;;;11.10;77.90;;;;;;4995462;28;20426;-76
2021/09/20 01:02:24;;;;;;;15.68;10.35;;;11.40;76.10;;;;;;4993069;28;20397;-76
2021/09/20 01:04:49;;;;;;;14.37;10.20;;;11.60;70.40;;;;;;4993595;28;20497;-76
2021/09/20 01:07:15;;;;;;;14.37;9.90;;;11.70;69.00;;;;;;4992801;28;20521;-75
2021/09/20 01:09:41;;;;;;;16.83;9.52;;;11.80;67.00;;;;;;5006567;28;20400;-75
2021/09/20 01:12:10;;;;;;;14.07;10.02;;;11.80;66.60;;;;;;5011654;28;20467;-76
2021/09/20 01:14:36;;;;;;;13.20;9.40;;;11.60;68.20;;;;;;5008488;28;20418;-75
2021/09/20 01:17:03;;;;;;;13.07;10.02;;;11.30;70.50;;;;;;4993039;28;20489;-75
2021/09/20 01:19:29;;;;;;;15.55;10.50;;;11.10;75.10;;;;;;4994201;28;20473;-75
2021/09/20 01:22:00;;;;;;;13.02;10.50;;;11.00;78.40;;;;;;5019584;28;20430;-75
2021/09/20 01:24:25;;;;;;;15.35;9.90;;;10.90;78.70;;;;;;5033519;28;20434;-74
2021/09/20 01:26:55;;;;;;;14.68;10.93;;;10.80;81.40;;;;;;4996425;28;20841;-74
2021/09/20 01:29:23;;;;;;;15.63;10.13;;;10.70;83.00;;;;;;4995128;28;20395;-74
2021/09/20 01:31:49;;;;;;;13.52;10.02;;;11.00;80.30;;;;;;5008370;28;20389;-74
2021/09/20 01:34:14;;;;;;;16.27;11.30;;;11.10;78.10;;;;;;5012756;28;20425;-75
2021/09/20 01:36:40;;;;;;;17.97;10.70;;;11.00;78.10;;;;;;5012365;28;20389;-75
2021/09/20 01:39:15;;;;;;;16.33;10.73;;;10.90;78.30;;;;;;5012251;28;20385;-76
2021/09/20 01:41:41;;;;;;;12.30;9.60;;;10.90;78.40;;;;;;5007069;28;20382;-74
2021/09/20 01:44:06;;;;;;;13.10;9.90;;;11.00;77.20;;;;;;4992197;28;20405;-75
2021/09/20 01:46:32;;;;;;;13.88;9.80;;;11.20;73.70;;;;;;5008337;28;20419;-76
2021/09/20 01:49:01;;;;;;;13.90;10.48;;;11.20;71.80;;;;;;5011779;28;20412;-76
2021/09/20 01:51:26;;;;;;;15.07;11.15;;;11.00;74.00;;;;;;5012182;28;20400;-76
2021/09/20 01:53:52;;;;;;;17.08;10.70;;;10.80;77.90;;;;;;5012212;28;20885;-75
2021/09/20 01:56:19;;;;;;;15.40;10.60;;;11.00;76.60;;;;;;5010935;28;20879;-75
2021/09/20 01:58:44;;;;;;;14.80;10.90;;;11.10;72.90;;;;;;5011315;28;20770;-74
2021/09/20 02:01:10;;;;;;;17.20;11.00;;;11.10;71.70;;;;;;5011615;28;20385;-74
2021/09/20 02:03:35;;;;;;;15.20;10.67;;;11.10;71.40;;;;;;5011323;28;20389;-75
2021/09/20 02:06:01;;;;;;;17.20;10.97;;;10.90;74.10;;;;;;5000323;28;20779;-74
2021/09/20 02:08:27;;;;;;;17.07;11.47;;;10.70;77.40;;;;;;4992841;28;20951;-73
2021/09/20 02:10:52;;;;;;;17.47;11.27;;;10.60;78.80;;;;;;4992179;28;20903;-76
2021/09/20 02:13:18;;;;;;;14.20;11.70;;;10.50;81.80;;;;;;4991738;28;20812;-76
2021/09/20 02:15:43;;;;;;;15.95;11.40;;;10.40;84.10;;;;;;4999228;28;20431;-76
2021/09/20 02:18:09;;;;;;;14.40;11.10;;;10.50;84.00;;;;;;5010041;28;20385;-75
2021/09/20 02:20:34;;;;;;;20.00;12.98;;;10.50;82.80;;;;;;5013239;28;20397;-75
2021/09/20 02:23:00;;;;;;;15.23;11.05;;;10.50;83.20;;;;;;5030938;28;20449;-75
2021/09/20 02:25:26;;;;;;;17.80;11.70;;;10.60;79.80;;;;;;5020084;28;20415;-75
2021/09/20 02:27:51;;;;;;;18.85;12.95;;;10.90;75.80;;;;;;4996235;28;20400;-75
2021/09/20 02:30:17;;;;;;;19.33;13.20;;;10.70;74.00;;;;;;5010819;28;20397;-74
2021/09/20 02:32:43;;;;;;;14.80;11.80;;;10.50;78.40;;;;;;5010731;28;20385;-75
2021/09/20 02:35:09;;;;;;;18.75;12.05;;;10.40;81.30;;;;;;5010517;28;20416;-75
2021/09/20 02:37:36;;;;;;;17.02;11.05;;;10.60;79.80;;;;;;5009386;28;20376;-76
2021/09/20 02:40:03;;;;;;;20.67;12.35;;;10.60;76.80;;;;;;4991431;28;20402;-75
2021/09/20 02:42:29;;;;;;;20.07;11.90;;;10.40;79.00;;;;;;5002824;28;20422;-76
2021/09/20 02:44:54;;;;;;;15.20;11.70;;;10.30;81.70;;;;;;5013343;28;20397;-76
2021/09/20 02:47:20;;;;;;;18.13;11.40;;;10.30;82.60;;;;;;5014991;28;20431;-76
2021/09/20 02:49:45;;;;;;;18.30;11.63;;;10.20;83.40;;;;;;5015716;28;20770;-77
2021/09/20 02:52:11;;;;;;;17.03;12.47;;;10.30;85.20;;;;;;5014099;28;20385;-77
2021/09/20 02:54:36;;;;;;;16.00;11.77;;;10.30;81.90;;;;;;5010968;28;20408;-76
2021/09/20 02:57:02;;;;;;;18.00;12.70;;;10.10;83.30;;;;;;5010729;28;20385;-77
2021/09/20 02:59:28;;;;;;;16.48;12.25;;;10.00;85.30;;;;;;4992786;28;20413;-77
2021/09/20 03:01:53;;;;;;;22.20;12.35;;;10.00;85.60;;;;;;4991425;28;20893;-77
2021/09/20 03:04:19;;;;;;;18.20;12.60;;;10.00;86.80;;;;;;4991277;28;20394;-77
2021/09/20 03:06:45;;;;;;;18.20;12.33;;;10.00;87.20;;;;;;4991395;28;20390;-75
2021/09/20 03:09:11;;;;;;;18.75;12.63;;;10.20;85.30;;;;;;5003244;28;20392;-76
2021/09/20 03:11:36;;;;;;;18.75;11.98;;;10.30;81.30;;;;;;5004799;28;20423;-77
2021/09/20 03:14:02;;;;;;;17.02;12.00;;;10.50;78.50;;;;;;5010391;28;20392;-76
2021/09/20 03:16:28;;;;;;;17.00;12.30;;;10.50;76.20;;;;;;5009342;28;20894;-76
2021/09/20 03:18:53;;;;;;;19.80;12.40;;;10.50;76.80;;;;;;4997679;28;20402;-75
2021/09/20 03:21:23;;;;;;;18.77;12.50;;;10.50;76.40;;;;;;5003507;28;20415;-77
2021/09/20 03:23:49;;;;;;;22.10;12.60;;;10.40;77.40;;;;;;5009532;28;20557;-76
2021/09/20 03:26:14;;;;;;;19.90;12.93;;;10.50;74.70;;;;;;5026915;28;20396;-76
2021/09/20 03:28:40;;;;;;;18.03;12.13;;;10.40;76.80;;;;;;5025264;28;20403;-77
2021/09/20 03:31:06;;;;;;;17.83;12.53;;;10.20;79.00;;;;;;5023541;28;20385;-78
2021/09/20 03:33:31;;;;;;;18.07;13.17;;;10.00;81.40;;;;;;4997192;28;21030;-78
2021/09/20 03:35:57;;;;;;;20.43;13.10;;;10.10;85.10;;;;;;4995407;28;20477;-78
2021/09/20 03:38:22;;;;;;;21.17;14.00;;;10.20;83.00;;;;;;4997549;28;20477;-78
2021/09/20 03:40:48;;;;;;;22.03;13.53;;;10.20;81.10;;;;;;4997936;28;20437;-77
2021/09/20 03:43:14;;;;;;;20.33;13.43;;;10.10;82.40;;;;;;5010314;28;20401;-79
2021/09/20 03:45:41;;;;;;;18.55;13.23;;;10.10;82.90;;;;;;5017281;28;20668;-78
2021/09/20 03:48:07;;;;;;;17.70;12.60;;;10.30;81.50;;;;;;5010661;28;20387;-77
2021/09/20 03:50:33;;;;;;;22.13;12.50;;;10.20;80.40;;;;;;5004513;28;20422;-79
2021/09/20 03:52:58;;;;;;;20.15;13.23;;;10.10;81.40;;;;;;5013109;28;20431;-78
2021/09/20 03:55:24;;;;;;;21.27;13.15;;;10.00;82.10;;;;;;5023540;28;20411;-77
2021/09/20 03:57:50;;;;;;;20.83;12.93;;;10.00;84.20;;;;;;5026927;28;20393;-78
2021/09/20 04:00:16;;;;;;;21.60;13.88;;;10.00;83.80;;;;;;5025742;28;20399;-77
2021/09/20 04:02:42;;;;;;;22.17;13.50;;;10.10;83.70;;;;;;4999433;28;20398;-77
2021/09/20 04:05:08;;;;;;;21.00;13.50;;;10.30;80.90;;;;;;5008273;28;20394;-77
2021/09/20 04:07:41;;;;;;;43.70;16.73;;;10.20;80.30;;;;;;5006158;28;20501;-77
2021/09/20 04:10:07;;;;;;;31.50;14.70;;;10.20;81.50;;;;;;5006781;28;20394;-76
2021/09/20 04:12:33;;;;;;;26.30;14.13;;;10.10;80.70;;;;;;5014994;28;20409;-77
2021/09/20 04:14:59;;;;;;;21.93;13.53;;;10.00;82.30;;;;;;5024782;28;20500;-75
2021/09/20 04:17:24;;;;;;;23.60;13.70;;;10.10;84.10;;;;;;5025885;28;20392;-76
2021/09/20 04:19:51;;;;;;;18.10;12.00;;;10.10;84.70;;;;;;5028401;28;20395;-76
2021/09/20 04:22:25;;;;;;;21.60;13.83;;;10.20;82.20;;;;;;5011407;28;20417;-77
2021/09/20 04:24:51;;;;;;;20.52;13.50;;;10.10;82.20;;;;;;5004441;28;20406;-76
2021/09/20 04:27:17;;;;;;;23.45;14.10;;;10.10;83.30;;;;;;5002921;28;20416;-76
2021/09/20 04:29:48;;;;;;;19.15;12.65;;;10.10;83.50;;;;;;5002336;28;20399;-78
2021/09/20 04:32:18;;;;;;;20.73;12.43;;;10.40;79.60;;;;;;5020567;28;20621;-77
2021/09/20 04:34:48;;;;;;;22.60;13.60;;;10.40;75.30;;;;;;5004686;28;20479;-76
2021/09/20 04:37:25;;;;;;;20.33;13.00;;;10.30;78.10;;;;;;5023438;28;20381;-76
2021/09/20 04:39:59;;;;;;;22.92;12.65;;;10.30;79.00;;;;;;5031942;28;20412;-77
2021/09/20 04:42:25;;;;;;;21.13;13.47;;;10.30;77.50;;;;;;5022171;28;20432;-78
2021/09/20 04:44:51;;;;;;;20.40;13.00;;;10.20;80.40;;;;;;5018861;28;20864;-79
2021/09/20 04:47:17;;;;;;;18.50;13.30;;;10.30;78.90;;;;;;5017993;28;20769;-79
2021/09/20 04:49:43;;;;;;;24.08;14.80;;;10.10;81.10;;;;;;5017180;28;20761;-77
2021/09/20 04:52:17;;;;;;;21.63;14.40;;;10.00;83.50;;;;;;5015662;28;20474;-79
2021/09/20 04:54:43;;;;;;;22.13;14.27;;;10.00;87.00;;;;;;4999442;28;20420;-78
2021/09/20 04:57:08;;;;;;;24.07;14.50;;;10.20;85.90;;;;;;5019163;28;20397;-77
2021/09/20 04:59:34;;;;;;;27.77;14.87;;;10.20;85.70;;;;;;5014260;28;20384;-74
2021/09/20 05:01:59;;;;;;;22.73;14.52;;;10.10;86.80;;;;;;5011936;28;20475;-75
2021/09/20 05:04:25;;;;;;;20.80;14.30;;;10.10;88.30;;;;;;4994272;28;20399;-75
2021/09/20 05:06:51;;;;;;;24.67;14.95;;;10.20;87.50;;;;;;5009277;28;20407;-77
2021/09/20 05:09:16;;;;;;;24.00;14.60;;;10.30;84.10;;;;;;5014468;28;20392;-76
2021/09/20 05:11:42;;;;;;;23.35;15.32;;;10.30;84.50;;;;;;5020013;28;20504;-76
2021/09/20 05:14:07;;;;;;;21.90;14.48;;;10.30;86.00;;;;;;5010335;28;20408;-77
2021/09/20 05:16:33;;;;;;;20.65;13.13;;;10.40;85.60;;;;;;5017381;28;20428;-76
2021/09/20 05:18:59;;;;;;;22.13;13.27;;;10.50;82.60;;;;;;5014800;28;20416;-75
2021/09/20 05:21:25;;;;;;;20.48;12.50;;;10.70;78.30;;;;;;5013336;28;20395;-75
2021/09/20 05:23:50;;;;;;;18.48;13.35;;;10.80;75.50;;;;;;4999941;28;20564;-76
2021/09/20 05:26:17;;;;;;;23.85;16.45;;;11.10;69.20;;;;;;4994349;28;20752;-76
2021/09/20 05:28:43;;;;;;;21.33;13.95;;;11.00;69.60;;;;;;4993636;28;20445;-77
2021/09/20 05:31:09;;;;;;;21.50;13.77;;;11.10;71.40;;;;;;5002600;28;20389;-76
2021/09/20 05:33:35;;;;;;;22.55;14.98;;;11.00;73.00;;;;;;5006390;28;20498;-76
2021/09/20 05:36:05;;;;;;;23.17;14.07;;;10.90;75.00;;;;;;4999476;28;20931;-76
2021/09/20 05:38:32;;;;;;;26.88;14.75;;;11.00;76.40;;;;;;4997084;28;20761;-75
2021/09/20 05:40:57;;;;;;;23.80;15.27;;;11.20;73.80;;;;;;4998543;28;20521;-77
2021/09/20 05:43:24;;;;;;;21.80;14.70;;;11.30;71.60;;;;;;5002767;28;21726;-75
2021/09/20 05:45:49;;;;;;;21.80;14.15;;;11.20;73.30;;;;;;4993788;28;20474;-75
2021/09/20 05:48:16;;;;;;;26.30;16.10;;;11.20;74.50;;;;;;5023938;28;20582;-76
2021/09/20 05:50:42;;;;;;;22.23;14.63;;;11.20;75.20;;;;;;5005630;28;20409;-75
2021/09/20 05:53:08;;;;;;;22.38;14.15;;;11.40;72.10;;;;;;4992845;28;20544;-76
2021/09/20 05:55:34;;;;;;;19.80;14.30;;;11.50;70.20;;;;;;4993341;28;20410;-76
2021/09/20 05:57:59;;;;;;;22.60;14.10;;;11.60;69.00;;;;;;4997123;28;20424;-77
2021/09/20 06:00:26;;;;;;;20.63;14.00;;;11.60;69.00;;;;;;5016189;28;20537;-77
2021/09/20 06:02:52;;;;;;;25.05;14.98;;;11.90;65.50;;;;;;5012422;28;20408;-75
2021/09/20 06:05:18;;;;;;;21.60;13.90;;;12.00;62.70;;;;;;5012329;28;20917;-75
2021/09/20 06:07:44;;;;;;;19.65;13.52;;;12.20;61.10;;;;;;5012437;28;20385;-76
2021/09/20 06:10:11;;;;;;;23.58;13.32;;;12.50;55.70;;;;;;5008996;28;20445;-79
2021/09/20 06:12:37;;;;;;;21.15;13.57;;;12.80;51.50;;;;;;4995822;28;20389;-77
2021/09/20 06:15:05;;;;;;;22.95;13.35;;;12.80;52.60;;;;;;5011731;28;20401;-77
2021/09/20 06:17:31;;;;;;;19.95;13.90;;;12.80;53.40;;;;;;5012486;28;20396;-77
2021/09/20 06:19:56;;;;;;;17.80;12.90;;;12.90;52.90;;;;;;5009545;28;20401;-77
2021/09/20 06:22:22;;;;;;;16.63;12.23;;;13.20;48.40;;;;;;5023762;28;20858;-77
2021/09/20 06:24:47;;;;;;;21.48;13.25;;;13.50;46.40;;;;;;5013444;28;20400;-77
2021/09/20 06:27:13;;;;;;;18.58;13.65;;;13.50;46.70;;;;;;5008232;28;20412;-77
2021/09/20 06:29:39;;;;;;;19.77;13.13;;;13.60;46.60;;;;;;5004698;28;21106;-76
2021/09/20 06:32:05;;;;;;;17.67;12.68;;;13.80;44.80;;;;;;5013568;28;20400;-76
2021/09/20 06:34:30;;;;;;;19.88;13.70;;;13.90;43.00;;;;;;5020004;28;20395;-77
2021/09/20 06:36:56;;;;;;;21.92;13.50;;;13.90;42.30;;;;;;5020924;28;20400;-77
2021/09/20 06:39:22;;;;;;;18.38;13.05;;;14.00;42.90;;;;;;5016552;28;20899;-78
2021/09/20 06:41:47;;;;;;;20.30;12.27;;;14.10;42.00;;;;;;5028928;28;20397;-76
2021/09/20 06:44:13;;;;;;;16.60;13.17;;;14.10;40.90;;;;;;5016964;28;20930;-75
2021/09/20 06:46:38;;;;;;;19.50;13.37;;;14.10;42.20;;;;;;5018633;28;20400;-77
2021/09/20 06:49:06;;;;;;;20.67;13.70;;;14.00;43.20;;;;;;5016577;28;20416;-76
2021/09/20 06:51:32;;;;;;;18.35;12.70;;;14.10;44.30;;;;;;5013212;28;20481;-76
2021/09/20 06:53:58;;;;;;;18.75;13.13;;;14.30;42.00;;;;;;5006274;28;20920;-77
2021/09/20 06:56:24;;;;;;;21.33;13.30;;;14.30;41.50;;;;;;5030352;28;20414;-78
2021/09/20 06:58:50;;;;;;;17.87;12.80;;;14.30;41.70;;;;;;5034266;28;21126;-77
2021/09/20 07:01:15;;;;;;;18.02;13.48;;;14.30;42.40;;;;;;5023095;28;20494;-76
2021/09/20 07:03:42;;;;;;;17.38;12.82;;;14.40;42.20;;;;;;5004952;28;20398;-76
2021/09/20 07:06:07;;;;;;;16.73;12.00;;;14.70;40.00;;;;;;5016566;28;20400;-77
2021/09/20 07:08:33;;;;;;;18.30;12.35;;;15.00;38.50;;;;;;5010573;28;20398;-77
2021/09/20 07:10:59;;;;;;;20.00;12.40;;;15.00;38.70;;;;;;5014859;28;20408;-77
2021/09/20 07:13:25;;;;;;;18.85;12.20;;;14.90;38.80;;;;;;5013803;28;20805;-76
2021/09/20 07:15:50;;;;;;;17.65;13.32;;;14.80;39.90;;;;;;5001375;28;20417;-77
2021/09/20 07:18:16;;;;;;;17.30;12.33;;;14.90;39.90;;;;;;5005182;28;20428;-76
2021/09/20 07:20:44;;;;;;;27.08;13.15;;;15.10;39.40;;;;;;5016454;28;20399;-76
2021/09/20 07:23:10;;;;;;;18.45;12.80;;;15.20;39.70;;;;;;5016565;28;20451;-76
2021/09/20 07:25:35;;;;;;;19.83;12.98;;;15.40;36.10;;;;;;5023828;28;20414;-77
2021/09/20 07:28:01;;;;;;;18.80;11.90;;;15.50;36.70;;;;;;5025601;28;20504;-77
2021/09/20 07:30:27;;;;;;;16.65;12.10;;;15.60;36.80;;;;;;5023606;28;20399;-76
2021/09/20 07:32:52;;;;;;;17.25;11.52;;;15.80;34.60;;;;;;5022909;28;20916;-75
2021/09/20 07:35:19;;;;;;;15.38;12.07;;;15.90;33.70;;;;;;5028183;28;20421;-77
2021/09/20 07:37:50;;;;;;;18.73;11.73;;;16.10;32.60;;;;;;5011347;28;20398;-76
2021/09/20 07:40:16;;;;;;;14.70;11.18;;;16.20;32.40;;;;;;5007602;28;20406;-75
2021/09/20 07:42:42;;;;;;;16.63;10.50;;;16.20;32.40;;;;;;5013289;28;20408;-76
2021/09/20 07:45:09;;;;;;;15.93;11.87;;;16.50;30.70;;;;;;5011852;28;20467;-75
2021/09/20 07:47:35;;;;;;;14.88;11.32;;;16.40;30.80;;;;;;5002120;28;20903;-74
2021/09/20 07:50:01;;;;;;;15.27;11.43;;;16.50;31.20;;;;;;5011170;28;20492;-73
2021/09/20 07:52:27;;;;;;;16.45;11.05;;;16.40;31.50;;;;;;5009479;28;20422;-76
2021/09/20 07:54:53;;;;;;;13.98;10.30;;;16.50;31.30;;;;;;5018994;28;20412;-78
2021/09/20 07:57:18;;;;;;;17.67;9.75;;;16.70;30.40;;;;;;5006438;28;20970;-76
2021/09/20 07:59:44;;;;;;;15.23;10.73;;;17.00;29.40;;;;;;5009078;28;20397;-77
2021/09/20 08:02:10;;;;;;;15.77;10.50;;;17.00;28.70;;;;;;5012833;28;20452;-77
2021/09/20 08:04:36;;;;;;;17.30;10.65;;;17.10;28.50;;;;;;5017884;28;20401;-77
2021/09/20 08:07:02;;;;;;;15.55;10.40;;;17.10;28.20;;;;;;5013145;28;20393;-76
2021/09/20 08:09:27;;;;;;;13.37;10.27;;;17.00;29.10;;;;;;5018482;28;20400;-76
2021/09/20 08:11:53;;;;;;;15.07;10.40;;;17.20;28.80;;;;;;5019933;28;20766;-77
2021/09/20 08:14:18;;;;;;;12.93;9.38;;;17.40;28.00;;;;;;5016322;28;20424;-76
2021/09/20 08:16:44;;;;;;;18.15;10.30;;;17.40;28.10;;;;;;5020513;28;20850;-77
2021/09/20 08:19:09;;;;;;;13.23;9.90;;;17.40;28.20;;;;;;5020707;28;20393;-76
2021/09/20 08:21:35;;;;;;;16.20;10.73;;;17.40;26.10;;;;;;5024286;28;20422;-76
2021/09/20 08:24:00;;;;;;;13.73;9.88;;;17.30;27.60;;;;;;5019237;28;20424;-76
2021/09/20 08:26:26;;;;;;;14.60;9.70;;;17.40;26.50;;;;;;5022957;28;20397;-74
2021/09/20 08:28:51;;;;;;;13.90;9.60;;;17.60;26.60;;;;;;5014117;28;20409;-76
2021/09/20 08:31:17;;;;;;;15.77;9.40;;;17.70;26.80;;;;;;5014950;28;20402;-77
2021/09/20 08:33:43;;;;;;;13.17;10.00;;;17.90;25.30;;;;;;5007309;28;20409;-76
2021/09/20 08:36:11;;;;;;;11.83;9.27;;;17.90;24.90;;;;;;5012124;28;20787;-76
2021/09/20 08:38:36;;;;;;;20.15;9.90;;;17.90;24.60;;;;;;5010931;28;20821;-76
2021/09/20 08:41:02;;;;;;;12.10;9.20;;;17.90;24.80;;;;;;5009433;28;20389;-76
2021/09/20 08:43:28;;;;;;;12.07;8.77;;;17.90;25.50;;;;;;5004842;28;20435;-77
2021/09/20 08:45:56;;;;;;;14.25;9.27;;;17.80;24.90;;;;;;5017323;28;20746;-77
2021/09/20 08:48:22;;;;;;;12.82;9.20;;;17.80;24.90;;;;;;5006886;28;20445;-75
2021/09/20 08:50:48;;;;;;;12.30;9.57;;;18.20;24.40;;;;;;5014489;28;20412;-74
2021/09/20 08:53:13;;;;;;;14.00;9.73;;;18.40;22.90;;;;;;5016011;28;20411;-73
2021/09/20 08:55:39;;;;;;;12.03;9.17;;;18.50;22.90;;;;;;5020869;28;20408;-75
2021/09/20 08:58:05;;;;;;;12.07;9.60;;;18.40;23.00;;;;;;5014262;28;20401;-77
2021/09/20 09:00:31;;;;;;;9.57;8.50;;;18.30;23.20;;;;;;5013574;28;20412;-78
2021/09/20 09:02:59;;;;;;;12.90;9.10;;;18.20;23.50;;;;;;5011463;28;20404;-77
2021/09/20 09:05:27;;;;;;;12.02;9.05;;;18.40;22.10;;;;;;4998507;28;20401;-77
2021/09/20 09:07:59;;;;;;;11.95;9.20;;;18.80;20.90;;;;;;5005247;28;20406;-77
2021/09/20 09:10:27;;;;;;;11.83;8.63;;;18.90;19.90;;;;;;5014099;28;20415;-76
2021/09/20 09:12:53;;;;;;;13.52;9.50;;;18.90;20.70;;;;;;5024591;28;20460;-77
2021/09/20 09:15:22;;;;;;;11.07;8.97;;;18.80;21.00;;;;;;5018023;28;20521;-74
2021/09/20 09:17:52;;;;;;;10.60;7.50;;;18.90;20.40;;;;;;5015287;28;20427;-79
2021/09/20 09:20:24;;;;;;;17.48;8.70;;;19.00;20.40;;;;;;5000476;28;20556;-76
2021/09/20 09:22:51;;;;;;;12.88;8.40;;;18.90;19.60;;;;;;5013697;28;20854;-77
2021/09/20 09:25:27;;;;;;;11.65;8.68;;;18.90;20.30;;;;;;5008259;28;20741;-76
2021/09/20 09:27:59;;;;;;;12.07;8.10;;;19.10;19.10;;;;;;5006594;28;20401;-77
2021/09/20 09:30:39;;;;;;;12.10;8.70;;;19.00;19.90;;;;;;5013389;28;20484;-78
2021/09/20 09:33:21;;;;;;;13.93;8.90;;;19.00;19.90;;;;;;5019203;28;20420;-77
2021/09/20 09:35:54;;;;;;;12.73;7.90;;;19.00;19.70;;;;;;5016092;28;20874;-78
2021/09/20 09:38:21;;;;;;;14.95;8.65;;;19.10;19.80;;;;;;5013691;28;20949;-77
2021/09/20 09:40:57;;;;;;;12.93;9.00;;;19.20;18.70;;;;;;4996922;28;20450;-77
2021/09/20 09:43:27;;;;;;;13.30;8.20;;;19.40;19.40;;;;;;5012665;28;20926;-76
2021/09/20 09:45:54;;;;;;;13.25;8.80;;;19.60;19.20;;;;;;5007849;28;20408;-75
2021/09/20 09:48:22;;;;;;;15.35;9.25;;;19.60;19.00;;;;;;5012091;28;20447;-76
2021/09/20 09:51:00;;;;;;;11.85;9.10;;;19.60;19.30;;;;;;5009091;28;20436;-76
2021/09/20 09:53:32;;;;;;;13.50;8.80;;;19.40;18.80;;;;;;5001782;28;20419;-77
2021/09/20 09:56:02;;;;;;;11.43;8.50;;;19.40;19.50;;;;;;5008522;28;20783;-77
2021/09/20 09:58:29;;;;;;;14.48;9.35;;;19.70;19.70;;;;;;5003665;28;20402;-77
2021/09/20 10:01:18;;;;;;;13.73;9.57;;;19.80;18.50;;;;;;4998995;28;20485;-76
2021/09/20 10:04:23;;;;;;;13.57;9.68;;;19.70;18.40;;;;;;5031017;28;20379;-77
2021/09/20 10:06:54;;;;;;;11.60;9.23;;;19.60;19.10;;;;;;5022803;28;20409;-77
2021/09/20 10:09:26;;;;;;;14.63;9.85;;;19.60;19.00;;;;;;5013850;28;20826;-76
2021/09/20 10:11:54;;;;;;;12.85;9.32;;;19.70;18.70;;;;;;5004655;28;20942;-78
2021/09/20 10:14:21;;;;;;;12.88;9.02;;;19.90;17.80;;;;;;5011366;28;20491;-78
2021/09/20 10:16:49;;;;;;;16.45;8.60;;;19.80;18.20;;;;;;5012709;28;20413;-75
2021/09/20 10:19:15;;;;;;;15.98;8.88;;;19.80;18.70;;;;;;5018085;28;20900;-78
2021/09/20 10:21:41;;;;;;;12.30;9.27;;;19.90;18.10;;;;;;5013678;28;20394;-78
2021/09/20 10:24:06;;;;;;;12.40;9.07;;;19.90;17.50;;;;;;5011836;28;20458;-78
2021/09/20 10:26:33;;;;;;;10.73;9.30;;;19.70;18.30;;;;;;5017655;28;20565;-76
2021/09/20 10:29:01;;;;;;;14.13;9.10;;;19.70;17.90;;;;;;5008751;28;20411;-78
2021/09/20 10:31:29;;;;;;;13.37;9.23;;;19.90;17.50;;;;;;5007193;28;20399;-77
2021/09/20 10:34:19;;;;;;;13.18;8.85;;;19.90;17.90;;;;;;5021233;28;20468;-79
2021/09/20 10:36:49;;;;;;;10.45;8.23;;;20.20;18.70;;;;;;5013412;28;20447;-78
2021/09/20 10:39:15;;;;;;;13.63;8.63;;;20.30;16.60;;;;;;5014943;28;20504;-77
2021/09/20 10:41:41;;;;;;;10.80;8.50;;;20.70;16.10;;;;;;5016757;28;20410;-78
2021/09/20 10:44:07;;;;;;;11.20;8.23;;;20.70;15.50;;;;;;5016018;28;20409;-78
2021/09/20 10:46:37;;;;;;;10.10;7.97;;;20.70;16.20;;;;;;5012706;28;20415;-77
2021/09/20 10:49:05;;;;;;;9.77;8.60;;;20.70;15.70;;;;;;5013374;28;20407;-77
2021/09/20 10:51:37;;;;;;;9.07;7.75;;;20.80;15.60;;;;;;5008483;28;20420;-76
2021/09/20 10:54:23;;;;;;;9.10;7.50;;;20.90;15.60;;;;;;5007232;28;20411;-77
2021/09/20 10:56:51;;;;;;;10.03;7.50;;;20.90;15.40;;;;;;5005337;28;20960;-76
2021/09/20 10:59:18;;;;;;;12.52;8.38;;;21.10;14.60;;;;;;5011258;28;20397;-76
2021/09/20 11:01:55;;;;;;;11.20;7.97;;;21.00;15.00;;;;;;5009486;28;20833;-77
2021/09/20 11:04:26;;;;;;;9.60;8.20;;;21.00;15.30;;;;;;5006591;28;20486;-78
2021/09/20 11:07:06;;;;;;;11.77;7.30;;;21.10;15.40;;;;;;5010725;28;20389;-78
2021/09/20 11:09:39;;;;;;;11.30;8.05;;;21.20;14.30;;;;;;5012673;28;20396;-78
2021/09/20 11:12:10;;;;;;;8.27;7.37;;;21.30;13.90;;;;;;5014156;28;20535;-76
2021/09/20 11:14:40;;;;;;;11.57;7.63;;;21.20;14.10;;;;;;5016536;28;20392;-77
2021/09/20 11:17:27;;;;;;;10.48;7.20;;;21.20;14.60;;;;;;5019153;28;20408;-77
2021/09/20 11:19:56;;;;;;;9.10;7.50;;;21.30;14.10;;;;;;5012954;28;20420;-78
2021/09/20 11:22:27;;;;;;;9.50;7.97;;;21.40;12.70;;;;;;5010211;28;21046;-76
2021/09/20 11:24:56;;;;;;;9.77;7.80;;;21.10;13.60;;;;;;5015106;28;20875;-77
2021/09/20 11:27:21;;;;;;;10.05;6.60;;;20.80;14.30;;;;;;5008780;28;20460;-77
2021/09/20 11:30:00;;;;;;;8.47;7.60;;;21.10;14.20;;;;;;5014185;28;20420;-77
2021/09/20 11:32:27;;;;;;;9.68;6.60;;;21.30;13.80;;;;;;5010597;28;20397;-78
2021/09/20 11:34:56;;;;;;;8.75;7.53;;;21.30;13.60;;;;;;5014862;28;20406;-77
2021/09/20 11:37:26;;;;;;;10.15;6.78;;;21.30;12.60;;;;;;5004554;28;20477;-78
2021/09/20 11:39:55;;;;;;;7.32;6.00;;;21.30;12.60;;;;;;5009360;28;20404;-77
2021/09/20 11:42:40;;;;;;;8.38;6.20;;;21.20;13.60;;;;;;5003142;28;20407;-76
2021/09/20 11:45:11;;;;;;;7.18;6.10;;;21.40;13.30;;;;;;5000816;28;20404;-77
2021/09/20 11:47:40;;;;;;;7.75;6.20;;;21.30;13.10;;;;;;5013901;28;20462;-76
2021/09/20 11:50:13;;;;;;;6.97;6.00;;;21.50;12.40;;;;;;5010068;28;20410;-77
2021/09/20 11:52:45;;;;;;;10.10;6.57;;;21.30;12.30;;;;;;5012206;28;20805;-76
2021/09/20 11:55:14;;;;;;;5.70;5.10;;;21.00;12.30;;;;;;5006625;28;20415;-75
2021/09/20 11:57:41;;;;;;;7.57;5.60;;;21.10;13.20;;;;;;4993989;28;20425;-76
2021/09/20 12:00:09;;;;;;;8.80;6.10;;;21.10;13.50;;;;;;4997747;28;20505;-76
2021/09/20 12:02:43;;;;;;;7.25;5.90;;;21.20;13.20;;;;;;5004195;28;20412;-77
2021/09/20 12:05:27;;;;;;;6.32;5.18;;;21.10;13.50;;;;;;5006375;28;20396;-76
2021/09/20 12:07:55;;;;;;;6.47;5.50;;;21.10;13.10;;;;;;5014483;28;20381;-77
2021/09/20 12:10:31;;;;;;;6.63;5.63;;;21.20;13.00;;;;;;5013307;28;20761;-76
2021/09/20 12:12:59;;;;;;;11.80;5.40;;;21.40;11.10;;;;;;5000561;28;20389;-77
2021/09/20 12:15:27;;;;;;;6.65;5.13;;;21.40;11.90;;;;;;5011219;28;20408;-76
2021/09/20 12:18:13;;;;;;;7.32;5.75;;;21.50;11.50;;;;;;5006033;28;20430;-77
2021/09/20 12:20:50;;;;;;;8.60;5.60;;;21.70;10.80;;;;;;5000184;28;20409;-77
2021/09/20 12:23:29;;;;;;;8.05;5.68;;;21.50;11.90;;;;;;5016567;28;20751;-77
2021/09/20 12:25:57;;;;;;;6.00;5.40;;;21.60;11.50;;;;;;5009949;28;20440;-77
2021/09/20 12:28:32;;;;;;;6.57;5.78;;;22.20;10.00;;;;;;4995251;28;20394;-76
2021/09/20 12:31:13;;;;;;;6.10;5.50;;;22.60;9.00;;;;;;5000709;28;20397;-78
2021/09/20 12:33:55;;;;;;;6.60;5.97;;;22.20;9.60;;;;;;4999742;28;20397;-76
2021/09/20 12:36:30;;;;;;;6.00;5.40;;;22.00;9.70;;;;;;5008020;28;20413;-77